Time;durP1;ratioP1;P1;durP2;ratioP2;P2;SDS_P1;SDS_P2;PMS_P1;PMS_P2;Temp;Humidity;BMP_temperature;BMP_pressure;BME280_temperature;BME280_humidity;BME280_pressure;Samples;Min_cycle;Max_cycle;Signal;HPM_P1;HPM_P2
2023/10/31 00:00:12;;;;;;;14.70;9.52;;;;;;;9.34;100.00;99658.56;6275847;22;20003;-76
2023/10/31 00:02:38;;;;;;;16.13;11.80;;;;;;;9.35;100.00;99667.09;6275784;22;20008;-75
2023/10/31 00:05:04;;;;;;;19.67;13.27;;;;;;;9.33;100.00;99677.50;6275890;22;20007;-77
2023/10/31 00:07:29;;;;;;;19.75;14.88;;;;;;;9.38;100.00;99677.16;6276158;22;20016;-72
2023/10/31 00:09:55;;;;;;;18.88;14.82;;;;;;;9.36;100.00;99671.31;6276093;22;20003;-76
2023/10/31 00:12:20;;;;;;;19.50;15.82;;;;;;;9.44;100.00;99676.72;6275732;22;20008;-77
2023/10/31 00:14:45;;;;;;;18.70;15.68;;;;;;;9.48;100.00;99673.75;6276364;22;20107;-76
2023/10/31 00:17:11;;;;;;;17.23;14.25;;;;;;;9.56;100.00;99680.09;6275989;22;20329;-74
2023/10/31 00:19:37;;;;;;;18.75;14.77;;;;;;;9.60;100.00;99692.63;6276388;22;20031;-74
2023/10/31 00:22:02;;;;;;;19.35;14.48;;;;;;;9.53;100.00;99682.88;6275827;22;20057;-75
2023/10/31 00:24:27;;;;;;;17.45;14.23;;;;;;;9.61;100.00;99698.59;6276248;22;20010;-75
2023/10/31 00:26:53;;;;;;;16.73;12.95;;;;;;;9.58;100.00;99693.69;6276156;22;20004;-74
2023/10/31 00:29:18;;;;;;;17.88;12.82;;;;;;;9.42;100.00;99676.81;6276141;22;20494;-73
2023/10/31 00:31:43;;;;;;;15.60;12.43;;;;;;;9.56;100.00;99690.41;6276053;22;20007;-75
2023/10/31 00:34:10;;;;;;;17.23;11.40;;;;;;;9.55;100.00;99691.34;6275955;22;20027;-74
2023/10/31 00:36:35;;;;;;;14.52;10.65;;;;;;;9.53;100.00;99703.50;6275826;22;20004;-76
2023/10/31 00:39:00;;;;;;;14.48;10.02;;;;;;;9.52;100.00;99704.44;6275942;22;20075;-75
2023/10/31 00:41:26;;;;;;;13.77;9.80;;;;;;;9.48;100.00;99704.69;6276384;22;20065;-73
2023/10/31 00:43:51;;;;;;;12.13;9.00;;;;;;;9.45;100.00;99707.50;6275629;22;20004;-72
2023/10/31 00:46:16;;;;;;;10.93;7.65;;;;;;;9.45;100.00;99710.09;6275829;22;20004;-72
2023/10/31 00:48:41;;;;;;;14.88;8.20;;;;;;;9.45;100.00;99712.66;6276237;22;19996;-73
2023/10/31 00:51:07;;;;;;;11.43;6.68;;;;;;;9.43;100.00;99722.25;6276177;22;20007;-72
2023/10/31 00:53:32;;;;;;;10.90;7.15;;;;;;;9.25;100.00;99692.75;6275700;22;20011;-73
2023/10/31 00:56:00;;;;;;;10.25;5.65;;;;;;;9.34;100.00;99719.53;6278038;22;20003;-73
2023/10/31 00:58:25;;;;;;;8.73;4.53;;;;;;;9.38;100.00;99721.78;6277864;22;20007;-73
2023/10/31 01:00:50;;;;;;;9.05;4.45;;;;;;;9.37;100.00;99720.16;6277846;22;20004;-76
2023/10/31 01:03:16;;;;;;;9.65;4.00;;;;;;;9.34;100.00;99728.13;6277842;22;20034;-74
2023/10/31 01:05:41;;;;;;;9.88;3.45;;;;;;;9.18;100.00;99705.25;6277830;22;20436;-78
2023/10/31 01:08:06;;;;;;;7.30;3.20;;;;;;;9.20;100.00;99707.72;6278080;22;19995;-73
2023/10/31 01:10:32;;;;;;;6.68;3.63;;;;;;;9.33;100.00;99738.50;6277754;22;20004;-73
2023/10/31 01:12:57;;;;;;;5.97;3.20;;;;;;;9.34;100.00;99745.31;6277264;22;20007;-73
2023/10/31 01:15:23;;;;;;;9.95;3.13;;;;;;;9.36;100.00;99740.88;6277712;22;20007;-73
2023/10/31 01:17:48;;;;;;;9.23;3.05;;;;;;;9.37;100.00;99745.09;6277706;22;20010;-73
2023/10/31 01:20:14;;;;;;;7.97;3.65;;;;;;;9.37;100.00;99743.34;6277987;22;20020;-73
2023/10/31 01:22:39;;;;;;;9.25;3.42;;;;;;;9.27;100.00;99733.84;6277604;22;20016;-73
2023/10/31 01:25:05;;;;;;;7.97;3.50;;;;;;;9.37;100.00;99743.34;6277654;22;20335;-74
2023/10/31 01:27:30;;;;;;;7.35;3.92;;;;;;;9.34;100.00;99741.00;6277589;22;20006;-73
2023/10/31 01:29:55;;;;;;;11.00;4.82;;;;;;;9.29;100.00;99740.50;6277396;22;20003;-73
2023/10/31 01:32:21;;;;;;;11.18;5.28;;;;;;;9.32;100.00;99740.28;6277805;22;20035;-74
2023/10/31 01:34:46;;;;;;;10.48;5.63;;;;;;;9.28;100.00;99746.59;6250222;22;20097;-72
2023/10/31 01:37:13;;;;;;;12.20;7.13;;;;;;;9.19;100.00;99737.81;6277520;22;20375;-74
2023/10/31 01:39:39;;;;;;;19.83;9.70;;;;;;;9.25;100.00;99741.69;6250425;22;20094;-74
2023/10/31 01:42:04;;;;;;;17.35;9.32;;;;;;;9.12;100.00;99722.91;6277621;22;20090;-75
2023/10/31 01:44:29;;;;;;;15.82;9.98;;;;;;;9.25;100.00;99749.41;6277645;22;20048;-74
2023/10/31 01:46:55;;;;;;;22.55;14.57;;;;;;;9.26;100.00;99747.66;6277666;22;20010;-74
2023/10/31 01:49:21;;;;;;;21.83;14.45;;;;;;;9.17;100.00;99739.69;6277434;22;20372;-74
2023/10/31 01:51:47;;;;;;;22.90;15.55;;;;;;;9.17;100.00;99741.44;6277382;22;20005;-73
2023/10/31 01:54:13;;;;;;;28.02;16.42;;;;;;;9.25;100.00;99753.75;6277147;22;20015;-74
2023/10/31 01:56:39;;;;;;;29.52;18.52;;;;;;;9.26;100.00;99752.81;6277475;22;20004;-73
2023/10/31 01:59:07;;;;;;;29.35;19.38;;;;;;;9.28;100.00;99748.34;6277216;22;20026;-72
2023/10/31 02:01:39;;;;;;;30.42;20.45;;;;;;;9.33;100.00;99757.38;6277288;22;20004;-73
2023/10/31 02:04:05;;;;;;;33.00;21.15;;;;;;;9.28;100.00;99751.75;6277145;22;20004;-73
2023/10/31 02:06:30;;;;;;;33.70;23.05;;;;;;;9.29;100.00;99750.81;6276887;22;20078;-73
2023/10/31 02:08:56;;;;;;;35.78;24.05;;;;;;;9.07;100.00;99722.44;6277198;22;20440;-75
2023/10/31 02:11:21;;;;;;;40.10;25.95;;;;;;;9.30;100.00;99760.19;6277187;22;20136;-76
2023/10/31 02:13:47;;;;;;;42.85;27.88;;;;;;;9.36;100.00;99766.66;6276912;22;20012;-73
2023/10/31 02:16:12;;;;;;;40.72;26.98;;;;;;;9.37;100.00;99765.72;6276901;22;20043;-73
2023/10/31 02:18:37;;;;;;;42.42;27.73;;;;;;;9.27;100.00;99742.38;6277261;22;20042;-74
2023/10/31 02:21:03;;;;;;;46.28;28.23;;;;;;;9.34;100.00;99750.47;6277412;22;20070;-75
2023/10/31 02:23:28;;;;;;;40.83;27.38;;;;;;;9.43;100.00;99757.50;6276864;22;20011;-74
2023/10/31 02:25:54;;;;;;;45.38;30.08;;;;;;;9.45;100.00;99747.91;6277187;22;20421;-73
2023/10/31 02:28:19;;;;;;;44.15;29.67;;;;;;;9.47;100.00;99753.78;6277348;22;20073;-73
2023/10/31 02:30:44;;;;;;;47.00;29.88;;;;;;;9.38;100.00;99741.59;6277136;22;20360;-75
2023/10/31 02:33:10;;;;;;;48.72;31.13;;;;;;;9.44;100.00;99752.25;6276814;22;20440;-75
2023/10/31 02:35:35;;;;;;;50.50;32.85;;;;;;;9.45;100.00;99755.66;6276976;22;20007;-75
2023/10/31 02:38:00;;;;;;;49.33;33.95;;;;;;;9.41;100.00;99749.06;6276656;22;20039;-73
2023/10/31 02:40:26;;;;;;;51.42;34.13;;;;;;;9.47;100.00;99759.75;6276940;22;20008;-76
2023/10/31 02:42:51;;;;;;;51.13;35.20;;;;;;;9.35;100.00;99745.22;6276666;22;20134;-74
2023/10/31 02:45:17;;;;;;;52.03;35.58;;;;;;;9.51;100.00;99762.09;6249540;22;20333;-73
2023/10/31 02:47:42;;;;;;;55.67;35.50;;;;;;;9.50;100.00;99769.00;6276780;22;20087;-74
2023/10/31 02:50:08;;;;;;;54.53;35.03;;;;;;;9.51;100.00;99769.81;6276677;22;20465;-74
2023/10/31 02:52:33;;;;;;;57.70;34.95;;;;;;;9.52;100.00;99771.44;6276687;22;20003;-73
2023/10/31 02:54:58;;;;;;;54.70;36.20;;;;;;;9.53;100.00;99773.09;6276950;22;20014;-73
2023/10/31 02:57:24;;;;;;;59.33;38.33;;;;;;;9.54;100.00;99777.31;6276891;22;20031;-73
2023/10/31 02:59:49;;;;;;;56.97;38.38;;;;;;;9.51;100.00;99773.22;6276384;22;20061;-75
2023/10/31 03:02:14;;;;;;;55.25;36.70;;;;;;;9.52;100.00;99785.16;6276361;22;20433;-76
2023/10/31 03:04:40;;;;;;;52.63;34.53;;;;;;;9.50;100.00;99776.72;6249224;22;20099;-73
2023/10/31 03:07:05;;;;;;;51.17;33.45;;;;;;;9.48;100.00;99778.59;6276742;22;19996;-76
2023/10/31 03:09:30;;;;;;;57.00;35.33;;;;;;;9.52;100.00;99789.50;6276494;22;20087;-75
2023/10/31 03:11:55;;;;;;;55.38;33.30;;;;;;;9.50;100.00;99787.03;6276612;22;20007;-75
2023/10/31 03:14:21;;;;;;;50.75;34.38;;;;;;;9.47;100.00;99793.25;6276714;22;20038;-74
2023/10/31 03:16:46;;;;;;;54.53;35.80;;;;;;;9.43;100.00;99789.25;6275892;22;20003;-74
2023/10/31 03:19:12;;;;;;;50.70;32.90;;;;;;;9.23;100.00;99765.91;6276142;22;19996;-76
2023/10/31 03:21:37;;;;;;;51.40;34.22;;;;;;;9.45;100.00;99797.69;6276401;22;20004;-75
2023/10/31 03:24:03;;;;;;;53.00;34.83;;;;;;;9.35;100.00;99786.44;6276376;22;20333;-74
2023/10/31 03:26:28;;;;;;;47.53;31.65;;;;;;;9.40;100.00;99802.34;6276333;22;20003;-75
2023/10/31 03:28:57;;;;;;;47.70;32.40;;;;;;;9.44;100.00;99813.28;6276533;22;20045;-78
2023/10/31 03:31:22;;;;;;;48.95;33.50;;;;;;;9.40;100.00;99815.25;6276231;22;20003;-75
2023/10/31 03:33:48;;;;;;;48.05;32.22;;;;;;;9.44;100.00;99824.41;6276190;22;20000;-76
2023/10/31 03:36:13;;;;;;;45.75;31.38;;;;;;;9.46;100.00;99826.88;6276551;22;20329;-74
2023/10/31 03:38:39;;;;;;;47.53;30.88;;;;;;;9.45;100.00;99833.78;6276481;22;20008;-75
2023/10/31 03:41:04;;;;;;;43.92;29.50;;;;;;;9.48;100.00;99832.72;6276583;22;20000;-74
2023/10/31 03:43:29;;;;;;;44.97;31.13;;;;;;;9.35;100.00;99814.78;6276234;22;20344;-76
2023/10/31 03:45:55;;;;;;;48.13;31.35;;;;;;;9.35;100.00;99819.13;6276503;22;20026;-71
2023/10/31 03:48:20;;;;;;;44.30;30.02;;;;;;;9.33;100.00;99824.34;6276223;22;20026;-74
2023/10/31 03:50:46;;;;;;;44.35;30.88;;;;;;;9.35;100.00;99837.16;6276049;22;20008;-73
2023/10/31 03:53:12;;;;;;;46.95;33.08;;;;;;;9.41;100.00;99845.22;6275903;22;20095;-76
2023/10/31 03:55:37;;;;;;;48.05;32.75;;;;;;;9.42;100.00;99846.88;6276522;22;19999;-74
2023/10/31 03:58:03;;;;;;;47.55;33.67;;;;;;;9.47;100.00;99852.50;6276298;22;20042;-75
2023/10/31 04:00:28;;;;;;;50.08;33.90;;;;;;;9.51;100.00;99860.00;6276487;22;20074;-74
2023/10/31 04:02:53;;;;;;;48.08;33.55;;;;;;;9.54;100.00;99862.34;6276107;22;20306;-76
2023/10/31 04:05:19;;;;;;;49.53;34.60;;;;;;;9.56;100.00;99869.06;6276041;22;20011;-75
2023/10/31 04:07:46;;;;;;;52.42;35.92;;;;;;;9.56;100.00;99865.66;6276402;22;20328;-78
2023/10/31 04:10:11;;;;;;;49.40;34.58;;;;;;;9.58;100.00;99864.59;6275975;22;20014;-76
2023/10/31 04:12:37;;;;;;;50.88;35.05;;;;;;;9.59;100.00;99875.75;6276228;22;20008;-75
2023/10/31 04:15:03;;;;;;;48.00;34.38;;;;;;;9.61;100.00;99873.84;6276160;22;20027;-74
2023/10/31 04:17:28;;;;;;;50.20;34.35;;;;;;;9.60;100.00;99872.22;6276089;22;20003;-76
2023/10/31 04:19:54;;;;;;;50.92;34.30;;;;;;;9.61;100.00;99879.00;6276029;22;20079;-73
2023/10/31 04:22:19;;;;;;;47.25;33.08;;;;;;;9.63;100.00;99874.56;6276074;22;20012;-76
2023/10/31 04:24:44;;;;;;;50.03;35.63;;;;;;;9.60;100.00;99878.19;6276295;22;20520;-73
2023/10/31 04:27:10;;;;;;;43.13;32.42;;;;;;;9.56;100.00;99874.22;6276362;22;20007;-72
2023/10/31 04:29:35;;;;;;;46.40;33.10;;;;;;;9.55;100.00;99875.16;6275634;22;20078;-73
2023/10/31 04:32:00;;;;;;;46.45;32.60;;;;;;;9.52;100.00;99879.69;6248530;22;20034;-73
2023/10/31 04:34:26;;;;;;;48.53;33.08;;;;;;;9.48;100.00;99879.94;6224057;22;20035;-73
2023/10/31 04:36:51;;;;;;;47.58;33.78;;;;;;;9.43;100.00;99870.88;6275761;22;20000;-73
2023/10/31 04:39:16;;;;;;;48.60;33.72;;;;;;;9.47;100.00;99888.59;6275747;22;20030;-73
2023/10/31 04:41:42;;;;;;;50.33;34.28;;;;;;;9.41;100.00;99893.38;6276072;22;20003;-74
2023/10/31 04:44:07;;;;;;;53.03;33.75;;;;;;;9.36;100.00;99893.72;6275660;22;19999;-77
2023/10/31 04:46:33;;;;;;;51.55;35.63;;;;;;;9.19;100.00;99870.94;6275834;22;20066;-73
2023/10/31 04:48:58;;;;;;;49.08;32.50;;;;;;;9.22;100.00;99888.72;6275934;22;20079;-73
2023/10/31 04:51:24;;;;;;;46.95;31.95;;;;;;;9.32;100.00;99899.19;6275937;22;20027;-73
2023/10/31 04:53:49;;;;;;;51.72;33.75;;;;;;;9.25;100.00;99900.59;6275060;22;20091;-73
2023/10/31 04:56:15;;;;;;;49.53;32.03;;;;;;;9.34;100.00;99911.03;6275862;22;20008;-72
2023/10/31 04:58:41;;;;;;;44.92;32.00;;;;;;;9.13;100.00;99885.06;6275507;22;19999;-73
2023/10/31 05:01:11;;;;;;;48.00;32.58;;;;;;;9.33;100.00;99911.13;6275592;22;20003;-73
2023/10/31 05:03:37;;;;;;;45.70;29.42;;;;;;;9.30;100.00;99907.03;6275699;22;20012;-74
2023/10/31 05:06:03;;;;;;;47.35;31.35;;;;;;;9.29;100.00;99915.69;6275954;22;20004;-74
2023/10/31 05:08:29;;;;;;;43.50;29.80;;;;;;;9.28;100.00;99919.22;6275617;22;20042;-74
2023/10/31 05:10:55;;;;;;;44.55;29.42;;;;;;;9.19;100.00;99907.81;6275855;22;20074;-74
2023/10/31 05:13:20;;;;;;;42.03;30.42;;;;;;;9.25;100.00;99921.19;6275422;22;20370;-73
2023/10/31 05:15:45;;;;;;;43.42;30.02;;;;;;;9.22;100.00;99924.78;6275937;22;20038;-75
2023/10/31 05:18:10;;;;;;;41.35;29.48;;;;;;;9.23;100.00;99923.03;6275436;22;20010;-73
2023/10/31 05:20:36;;;;;;;43.80;30.02;;;;;;;9.23;100.00;99920.47;6275409;22;20082;-73
2023/10/31 05:23:01;;;;;;;43.28;27.90;;;;;;;9.22;100.00;99913.66;6275830;22;20015;-74
2023/10/31 05:25:26;;;;;;;40.65;28.33;;;;;;;9.15;100.00;99911.53;6275575;22;20003;-73
2023/10/31 05:27:52;;;;;;;40.63;28.73;;;;;;;9.18;100.00;99918.22;6275603;22;20010;-73
2023/10/31 05:30:18;;;;;;;38.78;28.38;;;;;;;9.18;100.00;99921.63;6275875;22;20003;-80
2023/10/31 05:32:44;;;;;;;39.83;28.42;;;;;;;8.80;100.00;99875.41;6275886;22;20003;-80
2023/10/31 05:35:10;;;;;;;41.75;27.83;;;;;;;9.17;100.00;99929.47;6276442;22;20023;-80
2023/10/31 05:37:35;;;;;;;47.33;30.23;;;;;;;9.19;100.00;99941.28;6275557;22;20318;-76
2023/10/31 05:40:01;;;;;;;40.50;28.80;;;;;;;9.19;100.00;99940.47;6275451;22;20003;-75
2023/10/31 05:42:27;;;;;;;38.40;28.00;;;;;;;9.18;100.00;99949.97;6276677;22;20090;-73
2023/10/31 05:44:53;;;;;;;42.50;29.60;;;;;;;9.19;100.00;99959.31;6277458;22;20368;-76
2023/10/31 05:47:18;;;;;;;41.38;28.10;;;;;;;9.16;100.00;99963.88;6277369;22;20010;-74
2023/10/31 05:49:44;;;;;;;41.75;30.25;;;;;;;9.12;100.00;99959.84;6277741;22;20023;-75
2023/10/31 05:52:10;;;;;;;41.90;28.95;;;;;;;9.09;100.00;99970.38;6277153;22;20034;-74
2023/10/31 05:54:35;;;;;;;38.90;28.83;;;;;;;9.08;100.00;99967.00;6276887;22;20015;-76
2023/10/31 05:57:00;;;;;;;37.88;27.33;;;;;;;9.02;100.00;99962.25;6277316;22;20019;-72
2023/10/31 05:59:25;;;;;;;38.78;28.35;;;;;;;9.10;100.00;99974.59;6277103;22;20003;-73
2023/10/31 06:01:51;;;;;;;41.05;28.83;;;;;;;9.15;100.00;99977.69;6276988;22;20030;-76
2023/10/31 06:04:16;;;;;;;38.78;27.90;;;;;;;9.14;100.00;99981.16;6276661;22;20090;-73
2023/10/31 06:06:41;;;;;;;38.33;27.88;;;;;;;9.16;100.00;99987.88;6277308;22;20004;-75
2023/10/31 06:09:08;;;;;;;39.80;29.70;;;;;;;9.17;100.00;99991.28;6276791;22;20000;-73
2023/10/31 06:11:34;;;;;;;39.95;28.90;;;;;;;9.19;100.00;99997.97;6249733;22;20032;-74
2023/10/31 06:13:59;;;;;;;35.97;28.52;;;;;;;9.15;100.00;99991.41;6277130;22;20329;-75
2023/10/31 06:16:25;;;;;;;39.17;27.42;;;;;;;9.18;100.00;99998.91;6277181;22;20356;-73
2023/10/31 06:18:50;;;;;;;40.38;27.95;;;;;;;9.18;100.00;100000.66;6276967;22;20397;-75
2023/10/31 06:21:15;;;;;;;36.80;27.27;;;;;;;9.08;100.00;99994.50;6276917;22;20008;-73
2023/10/31 06:23:42;;;;;;;32.42;26.42;;;;;;;9.18;100.00;100016.09;6276757;22;20007;-74
2023/10/31 06:26:08;;;;;;;35.55;25.38;;;;;;;9.08;100.00;100010.78;6277049;22;20007;-72
2023/10/31 06:28:35;;;;;;;31.67;24.80;;;;;;;9.16;100.00;100025.69;6276722;22;20000;-72
2023/10/31 06:31:01;;;;;;;35.47;25.95;;;;;;;9.06;100.00;100010.06;6276927;22;19999;-75
2023/10/31 06:33:27;;;;;;;33.20;24.23;;;;;;;9.18;100.00;100034.13;6277034;22;20003;-74
2023/10/31 06:35:53;;;;;;;33.55;24.33;;;;;;;9.17;100.00;100028.16;6276604;22;20076;-73
2023/10/31 06:38:19;;;;;;;31.52;23.85;;;;;;;9.16;100.00;100023.94;6249400;22;20484;-74
2023/10/31 06:40:44;;;;;;;29.88;22.95;;;;;;;9.15;100.00;100029.22;6276907;22;20034;-74
2023/10/31 06:43:10;;;;;;;29.48;22.92;;;;;;;9.16;100.00;100038.59;6276892;22;20084;-74
2023/10/31 06:45:35;;;;;;;28.15;22.38;;;;;;;9.14;100.00;100040.41;6276695;22;20053;-74
2023/10/31 06:48:00;;;;;;;28.33;22.30;;;;;;;9.12;100.00;100037.13;6276632;22;20372;-73
2023/10/31 06:50:26;;;;;;;27.33;21.00;;;;;;;9.03;100.00;100023.13;6276271;22;19999;-76
2023/10/31 06:52:51;;;;;;;29.90;22.48;;;;;;;9.15;100.00;100044.66;6276794;22;20073;-74
2023/10/31 06:55:16;;;;;;;30.55;23.73;;;;;;;9.17;100.00;100050.53;6276764;22;20008;-74
2023/10/31 06:57:43;;;;;;;29.90;23.25;;;;;;;9.22;100.00;100047.63;6276840;22;20004;-72
2023/10/31 07:00:08;;;;;;;30.08;24.42;;;;;;;9.22;100.00;100051.00;6276606;22;20011;-73
2023/10/31 07:02:35;;;;;;;33.42;25.42;;;;;;;9.20;100.00;100052.88;6276686;22;20007;-74
2023/10/31 07:05:00;;;;;;;31.65;24.73;;;;;;;9.16;100.00;100056.59;6276184;22;20014;-73
2023/10/31 07:07:25;;;;;;;31.98;25.58;;;;;;;9.06;100.00;100042.72;6276488;22;20422;-74
2023/10/31 07:09:51;;;;;;;34.70;26.58;;;;;;;9.12;100.00;100042.28;6276908;22;20057;-73
2023/10/31 07:12:16;;;;;;;33.08;27.15;;;;;;;9.15;100.00;100048.06;6276582;22;20007;-74
2023/10/31 07:14:41;;;;;;;33.95;27.05;;;;;;;9.19;100.00;100051.25;6276384;22;20390;-74
2023/10/31 07:17:07;;;;;;;32.10;25.63;;;;;;;9.14;100.00;100037.84;6276823;22;20000;-73
2023/10/31 07:19:32;;;;;;;32.08;24.55;;;;;;;9.16;100.00;100031.69;6276421;22;20306;-74
2023/10/31 07:21:57;;;;;;;32.08;25.02;;;;;;;9.16;100.00;100044.56;6276887;22;20479;-75
2023/10/31 07:24:22;;;;;;;30.63;25.73;;;;;;;9.20;100.00;100053.69;6276483;22;20421;-74
2023/10/31 07:26:48;;;;;;;29.95;25.02;;;;;;;9.20;100.00;100050.31;6276513;22;20002;-73
2023/10/31 07:29:13;;;;;;;30.77;25.65;;;;;;;9.24;100.00;100051.72;6276169;22;20001;-73
2023/10/31 07:31:38;;;;;;;28.50;23.80;;;;;;;9.27;100.00;100054.09;6276248;22;20008;-72
2023/10/31 07:34:05;;;;;;;30.60;24.42;;;;;;;9.11;100.00;100028.59;6276081;22;20444;-73
2023/10/31 07:36:32;;;;;;;32.15;26.05;;;;;;;9.25;100.00;100066.28;6276351;22;20011;-71
2023/10/31 07:38:58;;;;;;;31.20;25.23;;;;;;;9.19;100.00;100064.13;6276418;22;20004;-74
2023/10/31 07:41:23;;;;;;;32.47;24.63;;;;;;;9.09;100.00;100069.09;6249000;22;20340;-72
2023/10/31 07:43:49;;;;;;;28.60;23.48;;;;;;;8.96;100.00;100063.13;6276146;22;20063;-76
2023/10/31 07:46:14;;;;;;;31.73;24.13;;;;;;;8.84;100.00;100045.94;6248901;22;20004;-74
2023/10/31 07:48:40;;;;;;;28.85;24.00;;;;;;;8.95;100.00;100071.78;6276109;22;20368;-76
2023/10/31 07:51:05;;;;;;;32.22;24.35;;;;;;;8.94;100.00;100072.69;6275828;22;20459;-76
2023/10/31 07:53:30;;;;;;;31.20;24.58;;;;;;;8.93;100.00;100073.63;6276304;22;20015;-75
2023/10/31 07:55:56;;;;;;;29.90;24.02;;;;;;;8.96;100.00;100073.44;6276027;22;20007;-75
2023/10/31 07:58:21;;;;;;;31.50;25.15;;;;;;;8.97;100.00;100074.25;6276235;22;20007;-73
2023/10/31 08:00:46;;;;;;;31.13;25.88;;;;;;;8.85;100.00;100052.75;6275787;22;20073;-74
2023/10/31 08:03:12;;;;;;;31.45;25.05;;;;;;;9.04;100.00;100080.63;6275782;22;20014;-72
2023/10/31 08:05:37;;;;;;;30.95;24.85;;;;;;;9.05;100.00;100079.72;6274005;22;20000;-72
2023/10/31 08:08:03;;;;;;;32.10;25.10;;;;;;;9.07;100.00;100076.09;6276274;22;20000;-72
2023/10/31 08:10:28;;;;;;;32.53;26.00;;;;;;;9.20;100.00;100076.06;6275568;22;20039;-71
2023/10/31 08:12:53;;;;;;;33.45;25.50;;;;;;;9.28;100.00;100086.66;6248231;22;20081;-72
2023/10/31 08:15:19;;;;;;;32.10;25.08;;;;;;;9.40;100.00;100085.81;6275485;22;20000;-71
2023/10/31 08:17:44;;;;;;;30.38;24.27;;;;;;;9.40;100.00;100087.56;6275576;22;20003;-73
2023/10/31 08:20:10;;;;;;;30.77;24.48;;;;;;;9.37;100.00;100083.44;6275854;22;20045;-72
2023/10/31 08:22:37;;;;;;;30.60;25.48;;;;;;;9.46;100.00;100092.28;6275803;22;20318;-72
2023/10/31 08:25:02;;;;;;;32.58;25.92;;;;;;;9.56;100.00;100087.31;6275735;22;20034;-75
2023/10/31 08:27:28;;;;;;;31.13;25.50;;;;;;;9.78;100.00;100101.16;6275702;22;20321;-76
2023/10/31 08:29:53;;;;;;;28.15;24.35;;;;;;;9.87;100.00;100098.84;6275181;22;20543;-74
2023/10/31 08:32:19;;;;;;;30.17;24.88;;;;;;;9.80;100.00;100087.31;6275717;22;20171;-72
2023/10/31 08:34:44;;;;;;;31.70;26.83;;;;;;;9.89;100.00;100090.06;6275391;22;20417;-73
2023/10/31 08:37:10;;;;;;;33.10;27.08;;;;;;;9.95;100.00;100099.94;6275927;22;20016;-74
2023/10/31 08:39:36;;;;;;;34.42;27.75;;;;;;;9.80;100.00;100072.69;6275672;22;20329;-72
2023/10/31 08:42:01;;;;;;;38.28;29.17;;;;;;;9.95;100.00;100084.47;6275478;22;20386;-71
2023/10/31 08:44:27;;;;;;;33.08;27.80;;;;;;;10.29;100.00;100110.44;6275978;22;20004;-73
2023/10/31 08:46:52;;;;;;;34.90;27.90;;;;;;;10.32;100.00;100113.63;6275433;22;20267;-72
2023/10/31 08:49:17;;;;;;;32.10;26.38;;;;;;;10.24;100.00;100121.09;6275695;22;19999;-73
2023/10/31 08:51:44;;;;;;;33.67;27.42;;;;;;;10.24;100.00;100131.41;6275314;22;20046;-73
2023/10/31 08:54:09;;;;;;;35.08;27.90;;;;;;;10.34;100.00;100131.56;6275495;22;20016;-73
2023/10/31 08:56:35;;;;;;;34.50;27.67;;;;;;;10.43;100.00;100137.81;6275757;22;20061;-73
2023/10/31 08:59:00;;;;;;;37.72;29.45;;;;;;;10.48;100.00;100148.63;6275697;22;20006;-77
2023/10/31 09:01:28;;;;;;;35.60;26.67;;;;;;;10.46;100.00;100151.31;6275522;22;20004;-74
2023/10/31 09:03:54;;;;;;;33.85;26.08;;;;;;;10.47;100.00;100152.13;6275415;22;20033;-73
2023/10/31 09:06:19;;;;;;;34.00;26.45;;;;;;;10.51;100.00;100159.53;6275561;22;20032;-74
2023/10/31 09:08:45;;;;;;;32.40;26.25;;;;;;;10.54;100.00;100156.75;6275762;22;20076;-76
2023/10/31 09:11:10;;;;;;;39.38;26.60;;;;;;;10.53;100.00;100159.44;6275489;22;20003;-73
2023/10/31 09:13:35;;;;;;;34.47;26.48;;;;;;;10.58;100.00;100160.75;6247584;22;20378;-73
2023/10/31 09:16:01;;;;;;;33.58;25.52;;;;;;;10.56;100.00;100167.78;6276672;22;20003;-75
2023/10/31 09:18:27;;;;;;;33.78;23.77;;;;;;;10.53;100.00;100162.03;6277654;22;19999;-75
2023/10/31 09:20:53;;;;;;;34.67;25.98;;;;;;;10.39;100.00;100170.75;6250037;22;20486;-75
2023/10/31 09:23:19;;;;;;;36.13;25.45;;;;;;;10.32;100.00;100179.88;6277335;22;20039;-73
2023/10/31 09:25:45;;;;;;;35.92;25.42;;;;;;;10.26;100.00;100186.31;6277119;22;20006;-74
2023/10/31 09:28:10;;;;;;;33.45;24.73;;;;;;;10.34;100.00;100186.59;6277731;22;20003;-73
2023/10/31 09:30:35;;;;;;;35.95;25.98;;;;;;;10.38;100.00;100183.78;6277410;22;20004;-79
2023/10/31 09:33:01;;;;;;;37.95;25.05;;;;;;;10.27;100.00;100177.63;6277476;22;20306;-74
2023/10/31 09:35:26;;;;;;;34.05;23.60;;;;;;;10.53;100.00;100196.41;6277246;22;20394;-76
2023/10/31 09:37:52;;;;;;;32.53;24.27;;;;;;;10.62;100.00;100203.50;6277156;22;20008;-75
2023/10/31 09:40:18;;;;;;;34.75;23.20;;;;;;;10.47;100.00;100157.31;6277454;22;20004;-75
2023/10/31 09:42:47;;;;;;;32.13;22.60;;;;;;;10.88;100.00;100203.31;6277151;22;20310;-79
2023/10/31 09:45:13;;;;;;;31.02;22.70;;;;;;;10.94;100.00;100196.88;6277105;22;20006;-75
2023/10/31 09:47:39;;;;;;;31.58;20.85;;;;;;;11.07;100.00;100213.94;6277148;22;20003;-74
2023/10/31 09:50:06;;;;;;;28.65;22.05;;;;;;;10.90;100.00;100201.44;6277143;22;20000;-76
2023/10/31 09:52:32;;;;;;;29.77;21.40;;;;;;;10.73;100.00;100196.72;6277374;22;20298;-71
2023/10/31 09:54:59;;;;;;;31.60;22.17;;;;;;;10.77;100.00;100221.38;6276971;22;20034;-74
2023/10/31 09:57:26;;;;;;;29.67;21.05;;;;;;;10.56;100.00;100201.34;6277627;22;20015;-72
2023/10/31 09:59:51;;;;;;;29.80;22.05;;;;;;;10.60;100.00;100226.00;6276687;22;20000;-75
2023/10/31 10:02:17;;;;;;;30.17;21.70;;;;;;;10.53;100.00;100227.38;6276898;22;20038;-75
2023/10/31 10:04:42;;;;;;;31.23;21.05;;;;;;;10.57;100.00;100239.13;6276978;22;20003;-75
2023/10/31 10:07:07;;;;;;;30.63;21.00;;;;;;;10.58;100.00;100224.47;6276945;22;20107;-74
2023/10/31 10:09:33;;;;;;;28.38;20.33;;;;;;;10.90;100.00;100246.16;6277121;22;19999;-76
2023/10/31 10:12:01;;;;;;;29.75;20.83;;;;;;;11.13;100.00;100252.25;6276989;22;20003;-76
2023/10/31 10:14:28;;;;;;;28.33;21.15;;;;;;;11.29;100.00;100256.25;6277239;22;20178;-75
2023/10/31 10:16:54;;;;;;;26.38;20.30;;;;;;;11.34;100.00;100256.75;6276926;22;20004;-75
2023/10/31 10:19:23;;;;;;;28.48;20.17;;;;;;;11.25;100.00;100252.25;6277169;22;20026;-77
2023/10/31 10:21:51;;;;;;;26.30;19.30;;;;;;;11.31;100.00;100256.97;6276450;22;20011;-74
2023/10/31 10:24:17;;;;;;;28.75;20.67;;;;;;;11.20;100.00;100256.00;6276825;22;20004;-77
2023/10/31 10:26:43;;;;;;;28.67;21.02;;;;;;;11.22;100.00;100247.31;6276414;22;19999;-73
2023/10/31 10:29:08;;;;;;;27.05;20.17;;;;;;;11.32;100.00;100251.69;6276859;22;20006;-75
2023/10/31 10:31:34;;;;;;;27.90;19.48;;;;;;;11.41;100.00;100270.84;6277154;22;20008;-74
2023/10/31 10:34:01;;;;;;;28.67;20.50;;;;;;;11.31;100.00;100273.31;6276563;22;20039;-74
2023/10/31 10:36:27;;;;;;;30.27;19.90;;;;;;;11.36;100.00;100283.28;6276582;22;20387;-74
2023/10/31 10:38:56;;;;;;;27.90;19.42;;;;;;;11.36;100.00;100253.09;6276569;22;20031;-75
2023/10/31 10:41:25;;;;;;;28.40;19.52;;;;;;;11.67;100.00;100274.03;6276984;22;20014;-77
2023/10/31 10:43:56;;;;;;;26.17;19.58;;;;;;;11.78;100.00;100285.19;6276733;22;20080;-77
2023/10/31 10:46:28;;;;;;;28.10;18.27;;;;;;;11.62;100.00;100271.81;6249234;22;20050;-74
2023/10/31 10:48:59;;;;;;;25.20;18.60;;;;;;;11.75;100.00;100295.78;6276301;22;20011;-70
2023/10/31 10:51:28;;;;;;;;;;;;;;;11.90;100.00;100291.25;6277236;22;20010;-73
2023/10/31 10:54:15;;;;;;;25.17;17.95;;;;;;;11.69;100.00;100295.44;6276505;22;20281;-75
2023/10/31 10:56:56;;;;;;;24.30;17.67;;;;;;;11.48;100.00;100274.59;6276822;22;20007;-74
2023/10/31 10:59:52;;;;;;;25.50;18.40;;;;;;;11.37;100.00;100269.44;6276528;22;19996;-74
2023/10/31 11:02:18;;;;;;;27.90;18.73;;;;;;;11.32;100.00;100302.56;6276433;22;20000;-77
2023/10/31 11:04:44;;;;;;;22.23;17.10;;;;;;;11.23;100.00;100292.91;6276557;22;20130;-75
2023/10/31 11:07:10;;;;;;;24.35;16.83;;;;;;;11.18;100.00;100288.06;6276315;22;20435;-76